Time,TemperatureF,DewpointF,PressureIn,WindDirection,WindDirectionDegrees,WindSpeedMPH,WindSpeedGustMPH,Humidity,HourlyPrecipIn,Conditions,Clouds,dailyrainin,SoftwareType,DateUTC
2013-01-13 00:10:00,56.4,50.3,30.09,SW,225,0.0,0.0,80,0.00,,---,0.00,VWS V13.00,2013-01-13 05:10:00,
2013-01-13 00:11:00,56.4,50.3,30.09,SW,225,0.0,0.0,80,0.00,,---,0.00,VWS V13.00,2013-01-13 05:11:00,
2013-01-13 00:16:00,45.6,42.3,30.12,SE,135,0.0,0.0,88,0.00,,---,0.00,VWS V13.00,2013-01-13 05:16:00,
2013-01-13 19:00:00,52.8,49.7,30.02,SW,225,0.0,1.1,89,0.00,,---,0.00,VWS V13.00,2013-01-14 00:00:00,
2013-01-13 19:05:00,52.8,49.7,30.02,West,270,0.0,3.8,89,0.00,,---,0.00,VWS V13.00,2013-01-14 00:05:00,
2013-01-13 19:10:00,52.8,49.7,30.03,WSW,248,1.3,3.8,89,0.00,,---,0.00,VWS V13.00,2013-01-14 00:10:00,
2013-01-13 19:15:00,52.8,49.7,30.02,SW,225,0.0,3.8,89,0.00,,---,0.00,VWS V13.00,2013-01-14 00:15:00,
2013-01-13 19:20:00,52.8,50.0,30.03,SE,135,0.0,3.8,90,0.00,,---,0.00,VWS V13.00,2013-01-14 00:20:00,
2013-01-13 19:25:00,52.8,50.0,30.03,SSW,202,4.9,4.9,90,0.00,,---,0.00,VWS V13.00,2013-01-14 00:25:00,
2013-01-13 19:30:00,52.8,50.0,30.02,SW,225,0.0,4.9,90,0.00,,---,0.00,VWS V13.00,2013-01-14 00:30:00,
2013-01-13 19:35:00,52.7,49.8,30.02,WSW,248,1.1,4.9,90,0.00,,---,0.00,VWS V13.00,2013-01-14 00:35:00,
2013-01-13 19:40:00,52.3,49.5,30.02,West,270,0.0,4.9,90,0.00,,---,0.00,VWS V13.00,2013-01-14 00:40:00,
2013-01-13 19:45:00,52.3,49.5,30.01,SW,225,0.0,0.0,90,0.00,,---,0.00,VWS V13.00,2013-01-14 00:45:00,
2013-01-13 19:50:00,52.1,49.3,30.02,SW,225,0.0,0.0,90,0.00,,---,0.00,VWS V13.00,2013-01-14 00:50:00,
2013-01-13 19:55:00,51.9,49.1,30.03,WNW,292,0.0,0.0,90,0.00,,---,0.00,VWS V13.00,2013-01-14 00:55:00,
2013-01-13 20:00:00,51.8,48.7,30.02,SSE,158,0.0,2.9,89,0.00,,---,0.00,VWS V13.00,2013-01-14 01:00:00,
2013-01-13 20:05:00,51.6,48.5,30.02,SSE,158,0.0,0.0,89,0.00,,---,0.00,VWS V13.00,2013-01-14 01:05:00,
2013-01-13 20:10:00,51.6,48.5,30.01,SSW,202,0.0,0.0,89,0.00,,---,0.00,VWS V13.00,2013-01-14 01:10:00,
2013-01-13 20:15:00,51.4,48.6,30.02,South,180,0.0,1.3,90,0.00,,---,0.00,VWS V13.00,2013-01-14 01:15:00,
2013-01-13 20:20:00,51.6,48.5,30.01,West,270,0.0,1.3,89,0.00,,---,0.00,VWS V13.00,2013-01-14 01:20:00,
2013-01-13 20:25:00,51.6,48.8,30.01,SW,225,0.0,0.0,90,0.00,,---,0.00,VWS V13.00,2013-01-14 01:25:00,
2013-01-13 20:30:00,51.6,48.8,30.01,SW,225,0.0,0.0,90,0.00,,---,0.00,VWS V13.00,2013-01-14 01:30:00,
2013-01-13 20:35:00,51.6,48.8,30.01,South,180,0.0,0.0,90,0.00,,---,0.00,VWS V13.00,2013-01-14 01:35:00,
2013-01-13 20:40:00,51.6,48.8,30.01,WSW,248,0.0,1.5,90,0.00,,---,0.00,VWS V13.00,2013-01-14 01:40:00,
2013-01-13 20:45:00,51.9,49.1,30.00,SW,225,0.0,0.0,90,0.00,,---,0.00,VWS V13.00,2013-01-14 01:45:00,
2013-01-13 20:50:00,51.9,49.1,30.00,SW,225,0.0,0.0,90,0.00,,---,0.00,VWS V13.00,2013-01-14 01:50:00,
2013-01-13 20:55:00,51.9,49.1,30.00,WSW,248,0.0,0.0,90,0.00,,---,0.00,VWS V13.00,2013-01-14 01:55:00,
2013-01-13 21:00:00,52.1,49.3,30.00,SSW,202,0.0,0.0,90,0.00,,---,0.00,VWS V13.00,2013-01-14 02:00:00,
2013-01-13 21:05:00,52.1,49.3,30.00,SW,225,0.0,0.0,90,0.00,,---,0.00,VWS V13.00,2013-01-14 02:05:00,
2013-01-13 21:10:00,52.3,49.5,30.00,SW,225,0.0,0.0,90,0.00,,---,0.00,VWS V13.00,2013-01-14 02:10:00,
2013-01-13 21:15:00,52.3,49.5,30.00,SSE,158,0.0,0.0,90,0.00,,---,0.00,VWS V13.00,2013-01-14 02:15:00,
2013-01-13 21:20:00,52.3,49.5,30.00,SSW,202,0.0,0.0,90,0.00,,---,0.00,VWS V13.00,2013-01-14 02:20:00,
2013-01-13 21:24:00,52.5,49.7,29.99,WSW,248,0.0,0.0,90,0.00,,---,0.00,VWS V13.00,2013-01-14 02:24:00,
2013-01-13 21:29:00,52.7,49.8,29.99,WSW,248,0.0,0.0,90,0.00,,---,0.00,VWS V13.00,2013-01-14 02:29:00,
2013-01-13 21:34:00,52.7,49.8,29.99,ESE,112,0.0,0.0,90,0.00,,---,0.00,VWS V13.00,2013-01-14 02:34:00,
2013-01-13 21:39:00,52.8,50.0,29.99,SSE,158,1.3,1.3,90,0.00,,---,0.00,VWS V13.00,2013-01-14 02:39:00,
2013-01-13 21:44:00,52.8,50.0,30.00,ESE,112,0.0,0.0,90,0.00,,---,0.00,VWS V13.00,2013-01-14 02:44:00,
2013-01-13 21:49:00,52.8,50.0,30.00,SSE,158,0.0,0.0,90,0.00,,---,0.00,VWS V13.00,2013-01-14 02:49:00,
2013-01-13 21:54:00,53.0,50.2,30.00,SSE,158,0.0,0.4,90,0.00,,---,0.00,VWS V13.00,2013-01-14 02:54:00,
2013-01-13 21:59:00,53.2,50.3,30.00,SE,135,0.0,4.4,90,0.00,,---,0.00,VWS V13.00,2013-01-14 02:59:00,
2013-01-13 22:04:00,53.2,50.3,30.00,SE,135,0.0,0.0,90,0.00,,---,0.00,VWS V13.00,2013-01-14 03:04:00,
2013-01-13 22:09:00,53.2,50.3,30.00,SSE,158,0.0,0.0,90,0.00,,---,0.00,VWS V13.00,2013-01-14 03:09:00,
2013-01-13 22:10:00,55.0,52.2,30.05,SW,225,0.0,0.0,90,0.00,,---,83.53,VWS V13.00,2013-01-14 03:10:00,
2013-01-13 22:14:00,53.2,50.3,30.00,South,180,0.0,0.0,90,0.00,,---,0.00,VWS V13.00,2013-01-14 03:14:00,
2013-01-13 22:19:00,53.2,50.3,30.00,West,270,0.0,0.0,90,0.00,,---,0.00,VWS V13.00,2013-01-14 03:19:00,
2013-01-13 22:24:00,53.2,50.3,30.00,SW,225,0.0,0.0,90,0.00,,---,0.00,VWS V13.00,2013-01-14 03:24:00,
2013-01-13 22:29:00,53.2,50.3,29.99,WSW,248,0.0,3.3,90,0.00,,---,0.00,VWS V13.00,2013-01-14 03:29:00,
2013-01-13 22:34:00,53.2,50.3,29.99,SW,225,0.0,3.3,90,0.00,,---,0.00,VWS V13.00,2013-01-14 03:34:00,
2013-01-13 22:39:00,53.2,50.3,29.99,West,270,0.0,3.3,90,0.00,,---,0.00,VWS V13.00,2013-01-14 03:39:00,
2013-01-13 22:44:00,53.2,50.3,29.99,South,180,0.0,0.0,90,0.00,,---,0.00,VWS V13.00,2013-01-14 03:44:00,
2013-01-13 22:49:00,53.2,50.3,30.00,SSW,202,0.0,0.0,90,0.00,,---,0.00,VWS V13.00,2013-01-14 03:49:00,
2013-01-13 22:54:00,53.2,50.3,29.99,SW,225,0.0,0.0,90,0.00,,---,0.00,VWS V13.00,2013-01-14 03:54:00,
2013-01-13 22:59:00,53.2,50.3,29.99,WSW,248,0.0,0.0,90,0.00,,---,0.00,VWS V13.00,2013-01-14 03:59:00,
2013-01-13 23:04:00,53.2,50.3,29.99,SW,225,0.0,0.0,90,0.00,,---,0.00,VWS V13.00,2013-01-14 04:04:00,
2013-01-13 23:09:00,53.2,50.3,29.99,SSW,202,0.6,0.6,90,0.00,,---,0.00,VWS V13.00,2013-01-14 04:09:00,
2013-01-13 23:14:00,53.4,50.5,29.99,SSW,202,1.7,1.7,90,0.00,,---,0.00,VWS V13.00,2013-01-14 04:14:00,
2013-01-13 23:19:00,53.4,50.5,29.99,SW,225,0.0,1.7,90,0.00,,---,0.00,VWS V13.00,2013-01-14 04:19:00,
2013-01-13 23:24:00,53.4,50.5,29.99,South,180,0.0,0.0,90,0.00,,---,0.00,VWS V13.00,2013-01-14 04:24:00,
2013-01-13 23:29:00,53.4,50.5,29.99,WSW,248,0.0,0.0,90,0.00,,---,0.00,VWS V13.00,2013-01-14 04:29:00,
2013-01-13 23:34:00,53.4,50.5,29.99,SSW,202,0.8,2.0,90,0.00,,---,0.00,VWS V13.00,2013-01-14 04:34:00,
2013-01-13 23:39:00,53.4,50.5,29.99,SSW,202,0.0,2.0,90,0.00,,---,0.00,VWS V13.00,2013-01-14 04:39:00,
2013-01-13 23:44:00,53.4,50.5,29.99,WSW,248,0.0,0.0,90,0.00,,---,0.00,VWS V13.00,2013-01-14 04:44:00,
2013-01-13 23:49:00,53.4,50.5,29.99,ESE,112,0.6,0.6,90,0.00,,---,0.00,VWS V13.00,2013-01-14 04:49:00,
2013-01-13 23:54:00,53.4,50.5,29.99,SW,225,0.0,0.6,90,0.00,,---,0.00,VWS V13.00,2013-01-14 04:54:00,
2013-01-13 23:59:00,53.4,50.5,29.98,SSW,202,0.0,0.6,90,0.00,,---,0.00,VWS V13.00,2013-01-14 04:59:00,